This is the latest recevied weather packets stored in our database for station/object SLG. If no packets are shown the sender has not sent any weather packets the latest 1 day(s).
| Time | Temp. | Humidity | Pressure | Rain* | Wind** | Luminosity | Snow |
|---|---|---|---|---|---|---|---|
| 1836273905 | 12.22° C | 92% | 1019.8 hPa | 0 mm | 0 m/s | - | - |
| 1778016731 | 11.67° C | 80% | 1006.7 hPa | 0.25 mm | 3.13 m/s, 239° | - | - |
| 1778014935 | 12.22° C | 80% | 1006.7 hPa | 0.25 mm | 3.58 m/s, 227° | - | - |
| 1778013129 | 12.78° C | 78% | 1006.5 hPa | 0.25 mm | 4.47 m/s, 218° | - | - |
| 1778011330 | 12.78° C | 77% | 1006.6 hPa | 0.25 mm | 5.81 m/s, 295° | - | - |
| 1778009529 | 13.33° C | 76% | 1006.5 hPa | 0.25 mm | 3.58 m/s, 206° | - | - |
| 1778007735 | 14.44° C | 77% | 1006.1 hPa | 0.25 mm | 4.47 m/s, 240° | - | - |
| 1778005932 | 15.56° C | 71% | 1005.5 hPa | 0.25 mm | 5.81 m/s, 304° | - | - |
| 1778004131 | 16.11° C | 66% | 1005.1 hPa | 0.25 mm | 4.47 m/s, 263° | - | - |
| 1778002330 | 16.67° C | 60% | 1005 hPa | 0.25 mm | 4.92 m/s, 312° | - | - |
| 1778000530 | 17.78° C | 56% | 1004.6 hPa | 0.25 mm | 3.58 m/s, 313° | - | - |
| 1777998731 | 18.33° C | 56% | 1004.6 hPa | 0.25 mm | 2.68 m/s, 298° | - | - |
| 1777995130 | 17.78° C | 64% | 1004.5 hPa | 0.25 mm | 2.24 m/s, 200° | - | - |
| 1777993336 | 17.22° C | 64% | 1004.6 hPa | 0.25 mm | 1.34 m/s, 27° | - | - |
| 1777991532 | 16.67° C | 66% | 1004.6 hPa | 0.25 mm | 2.24 m/s, 39° | - | - |
| 1777989730 | 16.11° C | 71% | 1004.9 hPa | 0.25 mm | 4.47 m/s, 315° | - | - |
| 1777987930 | 15.56° C | 77% | 1005 hPa | 0.25 mm | 2.68 m/s, 303° | - | - |
| 1777986130 | 15.56° C | 76% | 1004.9 hPa | 0.25 mm | 2.68 m/s, 294° | - | - |
| 1777984330 | 16.11° C | 73% | 1005.1 hPa | 0.25 mm | 3.58 m/s, 331° | - | - |
| 1777982530 | 17.22° C | 70% | 1005.1 hPa | 0 mm | 2.68 m/s, 312° | - | - |
| 1777980730 | 17.78° C | 65% | 1005.4 hPa | 0 mm | 2.24 m/s, 224° | - | - |
| 1777978931 | 16.67° C | 66% | 1005.1 hPa | 0 mm | 0.89 m/s, 223° | - | - |
| 1777977131 | 16.67° C | 69% | 1005 hPa | 0 mm | 3.13 m/s, 298° | - | - |
| 1777975332 | 16.67° C | 70% | 1005.1 hPa | 0 mm | 2.24 m/s, 196° | - | - |
| 1777973532 | 16.11° C | 68% | 1005.3 hPa | 0 mm | 3.13 m/s, 192° | - | - |
* Rain since midnight (hover to see other rain measurements)
** Current wind speed in m/s (hover to see current wind gust speed)